createdAt,value
2023-05-15T00:00:20.912Z,11.0129
2023-05-15T00:01:27.901Z,11.0130
2023-05-15T00:06:05.340Z,11.1494
2023-05-15T00:08:07.159Z,11.0314
2023-05-15T00:09:08.601Z,11.0263
2023-05-15T00:10:09.519Z,11.0231
2023-05-15T00:11:11.585Z,11.0193
2023-05-15T00:12:13.503Z,11.0174
2023-05-15T00:13:15.012Z,11.0158
2023-05-15T00:14:15.685Z,11.0157
2023-05-15T00:15:16.929Z,11.0158
2023-05-15T00:16:19.457Z,11.0152
2023-05-15T00:17:20.140Z,11.0152
2023-05-15T00:18:20.241Z,11.0161
2023-05-15T00:19:22.469Z,11.0150
2023-05-15T00:24:29.236Z,11.0231
2023-05-15T00:25:29.838Z,11.0258
2023-05-15T00:30:07.966Z,11.1646
2023-05-15T00:31:10.223Z,11.0681
2023-05-15T00:32:10.370Z,11.0631
2023-05-15T00:33:11.148Z,11.0626
2023-05-15T00:34:12.462Z,11.0614
2023-05-15T00:35:13.241Z,11.0604
2023-05-15T00:36:14.234Z,11.0607
2023-05-15T00:37:15.863Z,11.0607
2023-05-15T00:38:17.942Z,11.0623
2023-05-15T00:39:18.053Z,11.0626
2023-05-15T00:40:20.217Z,11.0657
2023-05-15T00:41:22.393Z,11.0672
2023-05-15T00:42:24.571Z,11.0701
2023-05-15T00:44:26.462Z,11.0756
2023-05-15T00:45:28.615Z,11.0785
2023-05-15T01:00:48.260Z,11.1701
2023-05-15T01:01:49.176Z,11.1707
2023-05-15T01:02:51.216Z,11.1710
2023-05-15T01:03:52.520Z,11.1738
2023-05-15T01:04:53.788Z,11.1760
2023-05-15T01:05:54.978Z,11.1790
2023-05-15T01:06:55.569Z,11.1834
2023-05-15T01:07:56.727Z,11.1859
2023-05-15T01:08:57.829Z,11.1915
2023-05-15T01:09:59.458Z,11.1962
2023-05-15T01:11:02.049Z,11.1996
2023-05-15T01:12:02.860Z,11.2043
2023-05-15T01:13:04.235Z,11.2091
2023-05-15T01:14:06.439Z,11.2157
2023-05-15T01:15:08.633Z,11.2213
2023-05-15T01:16:10.029Z,11.2285
2023-05-15T01:20:16.145Z,11.2608
2023-05-15T01:21:17.743Z,11.2691
2023-05-15T01:22:18.241Z,11.2782
2023-05-15T01:23:19.742Z,11.2878
2023-05-15T01:24:21.343Z,11.2974
2023-05-15T01:25:21.361Z,11.3065
2023-05-15T01:26:22.124Z,11.3160
2023-05-15T01:27:22.773Z,11.3248
2023-05-15T01:28:24.663Z,11.3354
2023-05-15T01:29:24.722Z,11.3455
2023-05-15T01:30:25.340Z,11.3565
2023-05-15T01:31:25.921Z,11.3666
2023-05-15T01:32:26.371Z,11.3771
2023-05-15T01:33:27.429Z,11.3885
2023-05-15T01:34:29.234Z,11.3992
2023-05-15T01:35:31.139Z,11.4094
2023-05-15T01:36:31.442Z,11.4182
2023-05-15T01:37:33.133Z,11.4265
2023-05-15T01:38:35.193Z,11.4354
2023-05-15T01:39:37.096Z,11.4444
2023-05-15T01:40:37.821Z,11.4523
2023-05-15T01:41:38.862Z,11.4599
2023-05-15T01:42:39.167Z,11.4672
2023-05-15T01:43:39.349Z,11.4733
2023-05-15T01:44:41.754Z,11.4810
2023-05-15T01:45:41.889Z,11.4891
2023-05-15T01:46:43.774Z,11.4954
2023-05-15T01:47:44.447Z,11.5016
2023-05-15T01:48:45.702Z,11.5087
2023-05-15T01:49:46.750Z,11.5138
2023-05-15T01:50:49.609Z,11.5197
2023-05-15T01:51:50.484Z,11.5256
2023-05-15T01:52:51.469Z,11.5308
2023-05-15T01:53:54.046Z,11.5346
2023-05-15T01:55:55.974Z,11.5453
2023-05-15T01:56:58.617Z,11.5506
2023-05-15T01:58:01.022Z,11.5543
2023-05-15T01:59:01.197Z,11.5590
2023-05-15T02:00:02.872Z,11.5638
2023-05-15T02:01:05.202Z,11.5696
2023-05-15T02:02:06.590Z,11.5742
2023-05-15T02:03:07.867Z,11.5792
2023-05-15T02:05:09.110Z,11.5913
2023-05-15T02:06:09.900Z,11.5961
2023-05-15T02:07:11.870Z,11.5994
2023-05-15T02:08:14.580Z,11.6023
2023-05-15T02:09:16.275Z,11.6032
2023-05-15T02:10:17.464Z,11.6053
2023-05-15T02:11:18.626Z,11.6062
2023-05-15T02:18:25.664Z,11.6132
2023-05-15T02:19:26.617Z,11.6149
2023-05-15T02:20:28.226Z,11.6149
2023-05-15T02:21:28.531Z,11.6159
2023-05-15T02:22:29.195Z,11.6174
2023-05-15T02:23:29.373Z,11.6178
2023-05-15T02:24:30.560Z,11.6185
2023-05-15T02:25:32.740Z,11.6169
2023-05-15T02:26:32.941Z,11.6175
2023-05-15T02:27:35.048Z,11.6153
2023-05-15T02:28:35.685Z,11.6142
2023-05-15T02:29:37.075Z,11.6108
2023-05-15T02:31:38.787Z,11.6051
2023-05-15T02:32:39.924Z,11.6002
2023-05-15T02:33:41.686Z,11.5931
2023-05-15T02:34:43.603Z,11.5887
2023-05-15T02:35:44.288Z,11.5812
2023-05-15T02:36:45.952Z,11.5753
2023-05-15T02:37:46.455Z,11.5710
2023-05-15T02:39:46.806Z,11.5629
2023-05-15T02:40:48.041Z,11.5586
2023-05-15T02:41:49.857Z,11.5547
2023-05-15T02:42:50.236Z,11.5515
2023-05-15T02:43:51.353Z,11.5493
2023-05-15T02:44:53.845Z,11.5485
2023-05-15T02:46:56.378Z,11.5439
2023-05-15T02:47:57.372Z,11.5404
2023-05-15T02:48:59.240Z,11.5331
2023-05-15T02:50:01.582Z,11.5282
2023-05-15T02:53:04.780Z,11.5014
2023-05-15T02:54:05.174Z,11.4890
2023-05-15T02:55:05.860Z,11.4749
2023-05-15T02:56:07.619Z,11.4603
2023-05-15T02:57:09.485Z,11.4453
2023-05-15T02:58:10.300Z,11.4309
2023-05-15T02:59:10.907Z,11.4167
2023-05-15T03:00:11.493Z,11.4020
2023-05-15T03:01:12.245Z,11.3891
2023-05-15T03:02:14.068Z,11.3773
2023-05-15T03:03:15.948Z,11.3651
2023-05-15T03:04:17.079Z,11.3576
2023-05-15T03:05:18.402Z,11.3488
2023-05-15T03:06:20.473Z,11.3426
2023-05-15T03:07:22.447Z,11.3379
2023-05-15T03:08:25.238Z,11.3331
2023-05-15T03:13:27.808Z,11.3145
2023-05-15T03:14:28.362Z,11.3117
2023-05-15T03:15:29.949Z,11.3073
2023-05-15T03:16:30.826Z,11.2999
2023-05-15T03:17:31.934Z,11.2879
2023-05-15T03:18:32.375Z,11.2730
2023-05-15T03:19:34.444Z,11.2542
2023-05-15T03:20:35.566Z,11.2292
2023-05-15T03:21:36.481Z,11.2032
2023-05-15T03:22:38.090Z,11.1754
2023-05-15T03:23:47.035Z,11.1477
2023-05-15T03:33:26.674Z,10.9164
2023-05-15T03:34:28.405Z,10.8965
2023-05-15T03:35:28.473Z,10.8775
2023-05-15T03:36:29.926Z,10.8589
2023-05-15T03:37:30.997Z,10.8441
2023-05-15T03:38:32.471Z,10.8313
2023-05-15T03:39:32.626Z,10.8219
2023-05-15T03:40:35.218Z,10.8134
2023-05-15T03:41:36.357Z,10.8056
2023-05-15T03:42:38.370Z,10.7974
2023-05-15T03:44:38.540Z,10.7808
2023-05-15T03:46:40.757Z,10.7593
2023-05-15T03:47:43.617Z,10.7473
2023-05-15T03:48:43.621Z,10.7335
2023-05-15T03:49:45.514Z,10.7243
2023-05-15T03:50:46.635Z,10.7163
2023-05-15T03:51:48.177Z,10.7089
2023-05-15T03:52:49.319Z,10.7013
2023-05-15T03:53:50.877Z,10.6931
2023-05-15T03:54:52.305Z,10.6851
2023-05-15T03:55:52.701Z,10.6773
2023-05-15T03:56:54.055Z,10.6698
2023-05-15T03:57:55.812Z,10.6639
2023-05-15T03:58:56.678Z,10.6555
2023-05-15T03:59:58.619Z,10.6469
2023-05-15T04:00:59.628Z,10.6419
2023-05-15T04:02:04.167Z,10.6386
2023-05-15T04:03:03.206Z,10.6352
2023-05-15T04:06:07.414Z,10.6423
2023-05-15T04:07:08.033Z,10.6450
2023-05-15T04:09:09.104Z,10.6541
2023-05-15T04:10:10.903Z,10.6604
2023-05-15T04:11:11.585Z,10.6660
2023-05-15T04:12:12.323Z,10.6727
2023-05-15T04:13:12.752Z,10.6815
2023-05-15T04:14:13.612Z,10.6901
2023-05-15T04:15:13.882Z,10.7023
2023-05-15T04:16:15.165Z,10.7151
2023-05-15T04:17:16.185Z,10.7279
2023-05-15T04:18:17.637Z,10.7422
2023-05-15T04:19:17.717Z,10.7571
2023-05-15T04:20:18.579Z,10.7717
2023-05-15T04:21:19.204Z,10.7857
2023-05-15T04:33:32.481Z,11.0132
2023-05-15T04:36:34.903Z,11.0791
2023-05-15T04:37:36.891Z,11.0982
2023-05-15T04:38:38.391Z,11.1176
2023-05-15T04:39:38.624Z,11.1354
2023-05-15T04:40:40.708Z,11.1545
2023-05-15T04:41:41.321Z,11.1742
2023-05-15T04:42:43.447Z,11.1945
2023-05-15T04:43:46.256Z,11.2125
2023-05-15T04:48:49.236Z,11.3045
2023-05-15T04:49:51.557Z,11.3210
2023-05-15T04:50:52.705Z,11.3384
2023-05-15T04:53:57.464Z,11.3893
2023-05-15T04:59:00.313Z,11.4574
2023-05-15T05:00:00.763Z,11.4706
2023-05-15T05:01:03.937Z,11.4835
2023-05-15T05:02:02.860Z,11.4981
2023-05-15T05:03:03.272Z,11.5127
2023-05-15T05:04:05.453Z,11.5284
2023-05-15T05:05:07.531Z,11.5428
2023-05-15T05:06:07.667Z,11.5572
2023-05-15T05:07:09.249Z,11.5732
2023-05-15T05:08:11.501Z,11.5922
2023-05-15T05:15:17.323Z,11.7133
2023-05-15T05:16:18.022Z,11.7320
2023-05-15T05:17:19.589Z,11.7521
2023-05-15T05:18:21.827Z,11.7726
2023-05-15T05:19:22.042Z,11.7915
2023-05-15T05:20:24.296Z,11.8096
2023-05-15T05:21:24.680Z,11.8280
2023-05-15T05:30:36.178Z,11.9413
2023-05-15T05:31:36.308Z,11.9477
2023-05-15T05:32:38.636Z,11.9537
2023-05-15T05:33:39.436Z,11.9604
2023-05-15T05:34:39.495Z,11.9697
2023-05-15T05:35:40.620Z,11.9796
2023-05-15T05:36:42.472Z,11.9906
2023-05-15T05:37:43.290Z,12.0037
2023-05-15T05:38:45.243Z,12.0176
2023-05-15T05:39:46.013Z,12.0344
2023-05-15T05:40:48.071Z,12.0519
2023-05-15T05:41:50.300Z,12.0709
2023-05-15T05:42:51.491Z,12.0906
2023-05-15T05:43:54.307Z,12.1109
2023-05-15T05:44:54.271Z,12.1308
2023-05-15T05:45:55.772Z,12.1510
2023-05-15T05:46:57.609Z,12.1721
2023-05-15T05:48:00.224Z,12.1902
2023-05-15T05:49:02.588Z,12.2080
2023-05-15T05:50:03.763Z,12.2260
2023-05-15T05:51:03.766Z,12.2450
2023-05-15T05:52:06.470Z,12.2603
2023-05-15T05:55:07.078Z,12.3056
2023-05-15T05:56:07.162Z,12.3220
2023-05-15T05:57:10.041Z,12.3395
2023-05-15T06:03:14.676Z,12.4216
2023-05-15T06:07:17.633Z,12.4613
2023-05-15T06:08:19.763Z,12.4685
2023-05-15T06:09:19.996Z,12.4747
2023-05-15T06:10:22.146Z,12.4797
2023-05-15T06:11:25.384Z,12.4850
2023-05-15T06:12:25.079Z,12.4907
2023-05-15T06:13:26.680Z,12.4966
2023-05-15T06:14:28.008Z,12.5015
2023-05-15T06:15:28.635Z,12.5044
2023-05-15T06:16:29.088Z,12.5083
2023-05-15T06:17:31.175Z,12.5111
2023-05-15T06:18:31.604Z,12.5135
2023-05-15T06:19:33.832Z,12.5150
2023-05-15T06:20:35.578Z,12.5195
2023-05-15T06:21:38.172Z,12.5220
2023-05-15T06:26:43.487Z,12.5442
2023-05-15T06:27:43.628Z,12.5464
2023-05-15T06:28:43.831Z,12.5511
2023-05-15T06:29:45.382Z,12.5569
2023-05-15T06:30:46.148Z,12.5658
2023-05-15T06:31:48.477Z,12.5749
2023-05-15T06:32:51.124Z,12.5827
2023-05-15T06:34:52.616Z,12.6056
2023-05-15T06:37:56.474Z,12.6393
2023-05-15T06:38:55.562Z,12.6491
2023-05-15T06:39:57.369Z,12.6604
2023-05-15T06:40:58.588Z,12.6723
2023-05-15T06:42:59.267Z,12.6932
2023-05-15T06:48:32.738Z,0.0000
2023-05-15T06:49:33.136Z,0.0000
2023-05-15T06:50:33.511Z,0.0000
2023-05-15T06:51:34.406Z,0.0000
2023-05-15T06:52:34.443Z,0.0000
2023-05-15T06:53:35.002Z,0.0000
2023-05-15T06:54:35.330Z,0.0000
2023-05-15T06:59:38.086Z,0.0000
2023-05-15T07:03:39.961Z,0.0000
2023-05-15T07:04:57.802Z,0.0000
2023-05-15T07:07:15.837Z,13.3455
2023-05-15T07:08:15.853Z,13.3257
2023-05-15T07:09:16.046Z,13.3315
2023-05-15T07:10:17.202Z,13.3495
2023-05-15T07:11:19.143Z,13.3741
2023-05-15T07:12:19.958Z,13.4016
2023-05-15T07:14:21.322Z,13.4565
2023-05-15T07:17:24.597Z,13.5533
2023-05-15T07:18:24.718Z,13.5891
2023-05-15T07:19:25.762Z,13.6303
2023-05-15T07:20:30.307Z,13.6721
2023-05-15T07:21:28.017Z,13.7180
2023-05-15T07:22:28.096Z,13.7638
2023-05-15T07:23:28.436Z,13.8180
2023-05-15T07:24:28.438Z,13.8763
2023-05-15T07:25:30.414Z,13.9372
2023-05-15T07:26:38.441Z,13.9988
2023-05-15T07:27:31.977Z,14.0642
2023-05-15T07:28:32.137Z,14.1179
2023-05-15T07:29:34.021Z,14.1757
2023-05-15T07:30:35.822Z,14.2275
2023-05-15T07:31:37.002Z,14.2767
2023-05-15T07:32:38.442Z,14.3156
2023-05-15T07:33:40.084Z,14.3469
2023-05-15T07:34:40.882Z,14.3690
2023-05-15T07:35:41.057Z,14.3830
2023-05-15T07:36:41.666Z,14.3905
2023-05-15T07:42:47.523Z,14.3541
2023-05-15T07:43:47.723Z,14.3339
2023-05-15T07:44:49.977Z,14.3084
2023-05-15T07:45:50.642Z,14.2796
2023-05-15T07:46:51.937Z,14.2441
2023-05-15T07:47:53.709Z,14.2096
2023-05-15T07:48:52.966Z,14.1731
2023-05-15T07:49:54.133Z,14.1339
2023-05-15T07:50:56.521Z,14.0975
2023-05-15T07:51:57.954Z,14.0632
2023-05-15T07:54:00.114Z,13.9914
2023-05-15T07:56:02.634Z,13.9095
2023-05-15T07:57:02.934Z,13.8662
2023-05-15T07:58:02.813Z,13.8220
2023-05-15T07:59:03.947Z,13.7793
2023-05-15T08:02:07.524Z,13.6566
2023-05-15T08:03:09.197Z,13.6170
2023-05-15T08:11:16.924Z,13.4300
2023-05-15T08:12:18.647Z,13.4263
2023-05-15T08:13:19.392Z,13.4264
2023-05-15T08:14:22.408Z,13.4310
2023-05-15T08:15:23.604Z,13.4388
2023-05-15T08:16:23.669Z,13.4505
2023-05-15T08:17:25.515Z,13.4674
2023-05-15T08:18:27.176Z,13.4879
2023-05-15T08:19:28.074Z,13.5164
2023-05-15T08:20:28.662Z,13.5484
2023-05-15T08:21:29.461Z,13.5840
2023-05-15T08:22:29.708Z,13.6256
2023-05-15T08:23:31.028Z,13.6728
2023-05-15T08:27:35.766Z,13.8934
2023-05-15T08:30:40.258Z,14.1053
2023-05-15T08:31:40.537Z,14.1885
2023-05-15T08:32:41.875Z,14.2796
2023-05-15T08:33:42.318Z,14.3728
2023-05-15T08:34:42.884Z,14.4672
2023-05-15T08:35:43.708Z,14.5600
2023-05-15T08:36:45.221Z,14.6573
2023-05-15T08:37:44.758Z,14.7558
2023-05-15T08:38:46.697Z,14.8573
2023-05-15T08:40:47.150Z,15.0804
2023-05-15T08:41:47.642Z,15.1880
2023-05-15T08:43:49.298Z,15.4004
2023-05-15T08:44:49.813Z,15.5139
2023-05-15T08:45:50.765Z,15.6252
2023-05-15T08:49:52.984Z,16.0051
2023-05-15T08:50:53.871Z,16.0870
2023-05-15T08:51:54.721Z,16.1661
2023-05-15T08:52:56.695Z,16.2518
2023-05-15T08:53:57.248Z,16.3407
2023-05-15T08:54:58.941Z,16.4323
2023-05-15T08:55:59.480Z,16.5160
2023-05-15T08:57:00.898Z,16.6017
2023-05-15T08:58:00.865Z,16.6869
2023-05-15T08:59:03.057Z,16.7710
2023-05-15T09:00:04.277Z,16.8636
2023-05-15T09:02:06.894Z,17.0663
2023-05-15T09:03:07.200Z,17.1579
2023-05-15T09:04:07.367Z,17.2708
2023-05-15T09:05:08.999Z,17.3861
2023-05-15T09:06:10.702Z,17.4864
2023-05-15T09:07:12.561Z,17.5926
2023-05-15T09:08:14.182Z,17.6919
2023-05-15T09:09:15.917Z,17.7846
2023-05-15T09:10:17.205Z,17.8611
2023-05-15T09:11:18.536Z,17.9358
2023-05-15T09:12:51.373Z,18.1302
2023-05-15T09:13:51.530Z,18.0952
2023-05-15T09:15:23.803Z,18.2595
2023-05-15T09:16:25.691Z,18.1964
2023-05-15T09:23:05.516Z,17.9873
2023-05-15T09:24:06.865Z,17.9427
2023-05-15T09:25:08.879Z,17.8762
2023-05-15T09:26:09.968Z,17.8219
2023-05-15T09:27:11.394Z,17.7538
2023-05-15T09:28:12.297Z,17.6746
2023-05-15T09:29:13.555Z,17.6017
2023-05-15T09:30:14.577Z,17.5180
2023-05-15T09:31:14.934Z,17.4404
2023-05-15T09:32:16.871Z,17.3506
2023-05-15T09:33:18.202Z,17.2770
2023-05-15T09:34:18.853Z,17.1991
2023-05-15T09:35:22.898Z,17.1249
2023-05-15T09:36:22.254Z,17.0559
2023-05-15T09:37:23.405Z,16.9933
2023-05-15T09:38:24.807Z,16.9340
2023-05-15T09:39:25.228Z,16.8784
2023-05-15T09:40:26.607Z,16.8174
2023-05-15T09:43:30.408Z,16.6468
2023-05-15T09:44:31.705Z,16.5923
2023-05-15T09:46:32.635Z,16.4781
2023-05-15T09:47:33.069Z,16.4132
2023-05-15T09:48:33.843Z,16.3531
2023-05-15T09:49:34.473Z,16.2932
2023-05-15T09:52:34.819Z,16.1518
2023-05-15T09:55:36.807Z,16.0565
2023-05-15T09:56:37.281Z,16.0396
2023-05-15T09:57:39.574Z,16.0371
2023-05-15T09:58:40.747Z,16.0501
2023-05-15T10:08:49.737Z,17.2477
2023-05-15T10:09:51.461Z,17.4126
2023-05-15T10:11:30.282Z,17.7600
2023-05-15T10:12:31.309Z,17.8221
2023-05-15T10:17:05.161Z,18.4871
2023-05-15T10:18:06.470Z,18.6269
2023-05-15T10:19:07.876Z,18.7835
2023-05-15T10:27:15.211Z,20.1750
2023-05-15T10:31:22.404Z,20.5797
2023-05-15T10:44:36.733Z,21.8265
2023-05-15T10:45:37.927Z,21.7776
2023-05-15T10:46:38.891Z,21.7103
2023-05-15T10:47:39.245Z,21.6289
2023-05-15T10:48:40.954Z,21.5365
2023-05-15T10:52:44.657Z,21.2181
2023-05-15T11:02:21.765Z,19.9504
2023-05-15T11:03:24.119Z,19.8222
2023-05-15T11:05:25.885Z,19.5871
2023-05-15T11:07:26.753Z,19.3932
2023-05-15T11:08:27.075Z,19.3042
2023-05-15T11:13:31.015Z,18.8997
2023-05-15T11:14:32.696Z,18.8248
2023-05-15T11:17:35.056Z,18.7880
2023-05-15T11:24:16.890Z,19.9839
2023-05-15T11:25:20.294Z,20.2142
2023-05-15T11:26:20.666Z,20.4414
2023-05-15T11:27:20.749Z,20.6413
2023-05-15T11:28:23.377Z,20.8273
2023-05-15T11:29:24.351Z,21.0370
2023-05-15T11:30:27.170Z,21.2678
2023-05-15T11:31:28.203Z,21.4758
2023-05-15T11:32:29.515Z,21.6873
2023-05-15T11:33:30.555Z,21.9029
2023-05-15T11:34:30.614Z,22.1362
2023-05-15T11:35:33.763Z,22.3447
2023-05-15T11:41:01.634Z,23.5973
2023-05-15T11:42:01.753Z,23.6956
2023-05-15T11:43:02.533Z,23.8535
2023-05-15T11:44:33.851Z,24.1397
2023-05-15T11:46:36.434Z,24.3552
2023-05-15T11:50:44.235Z,25.0330
2023-05-15T11:52:07.367Z,25.2193
2023-05-15T13:12:24.598Z,27.6947
2023-05-15T13:22:43.622Z,26.6328
2023-05-15T13:23:44.699Z,26.4283
2023-05-15T13:24:45.714Z,26.3133
2023-05-15T13:25:46.878Z,26.2083
2023-05-15T13:27:47.572Z,26.0141
2023-05-15T13:28:48.387Z,25.9242
2023-05-15T13:29:49.564Z,25.8270
2023-05-15T13:30:50.205Z,25.7412
2023-05-15T13:41:46.209Z,24.9965
2023-05-15T13:42:46.821Z,24.9482
2023-05-15T13:43:46.823Z,24.9001
2023-05-15T13:44:47.556Z,24.8569
2023-05-15T13:45:47.937Z,24.8185
2023-05-15T13:46:48.924Z,24.7780
2023-05-15T13:47:49.893Z,24.7480
2023-05-15T13:48:51.026Z,24.7095
2023-05-15T13:49:53.200Z,24.6700
2023-05-15T13:50:53.883Z,24.6439
2023-05-15T13:51:54.239Z,24.6378
2023-05-15T13:52:56.259Z,24.6898
2023-05-15T13:53:59.836Z,24.7771
2023-05-15T14:01:35.637Z,25.6855
2023-05-15T14:02:36.821Z,25.6316
2023-05-15T14:04:07.704Z,25.7042
2023-05-15T14:13:56.899Z,24.3688
2023-05-15T14:14:57.534Z,24.1903
2023-05-15T14:15:58.267Z,23.9816
2023-05-15T14:16:59.155Z,23.7918
2023-05-15T14:18:01.795Z,23.5850
2023-05-15T14:29:01.028Z,21.3101
2023-05-15T14:30:02.417Z,21.1079
2023-05-15T14:33:06.290Z,20.5803
2023-05-15T14:34:06.407Z,20.4093
2023-05-15T14:35:07.096Z,20.2290
2023-05-15T14:36:08.081Z,20.0538
2023-05-15T14:38:09.721Z,19.7148
2023-05-15T14:39:11.598Z,19.5435
2023-05-15T14:40:13.653Z,19.3812
2023-05-15T14:41:13.862Z,19.2403
2023-05-15T14:42:15.871Z,19.0993
2023-05-15T14:43:17.291Z,18.9520
2023-05-15T14:44:19.497Z,18.8235
2023-05-15T14:48:22.238Z,18.3463
2023-05-15T14:49:22.376Z,18.2262
2023-05-15T14:50:24.060Z,18.1151
2023-05-15T14:51:26.388Z,18.0014
2023-05-15T14:52:26.763Z,17.9089
2023-05-15T14:53:28.204Z,17.8139
2023-05-15T14:54:29.439Z,17.7205
2023-05-15T14:55:32.116Z,17.6333
2023-05-15T14:56:32.429Z,17.5519
2023-05-15T14:57:34.427Z,17.4708
2023-05-15T14:58:35.182Z,17.3943
2023-05-15T14:59:35.615Z,17.3217
2023-05-15T15:00:37.728Z,17.2521
2023-05-15T15:01:38.153Z,17.1879
2023-05-15T15:02:39.163Z,17.1250
2023-05-15T15:03:40.522Z,17.0720
2023-05-15T15:04:41.047Z,17.0174
2023-05-15T15:05:41.974Z,16.9648
2023-05-15T15:15:53.466Z,16.6016
2023-05-15T15:16:55.287Z,16.5883
2023-05-15T15:17:57.592Z,16.5799
2023-05-15T15:19:59.090Z,16.5821
2023-05-15T15:21:00.681Z,16.5873
2023-05-15T15:23:02.968Z,16.5934
2023-05-15T15:24:04.701Z,16.5929
2023-05-15T15:25:05.748Z,16.5914
2023-05-15T15:26:06.374Z,16.5901
2023-05-15T15:27:06.685Z,16.5865
2023-05-15T15:32:50.031Z,16.5179
2023-05-15T15:33:51.778Z,16.5030
2023-05-15T15:34:52.158Z,16.4874
2023-05-15T15:35:52.251Z,16.4683
2023-05-15T15:36:53.204Z,16.4449
2023-05-15T15:37:53.401Z,16.4193
2023-05-15T15:41:56.620Z,16.3208
2023-05-15T15:42:57.355Z,16.3062
2023-05-15T15:43:58.016Z,16.2998
2023-05-15T15:44:59.119Z,16.2974
2023-05-15T15:45:59.499Z,16.3010
2023-05-15T15:47:01.579Z,16.3075
2023-05-15T15:48:02.106Z,16.3173
2023-05-15T15:56:24.088Z,16.4074
2023-05-15T15:57:26.177Z,16.4100
2023-05-15T15:58:27.181Z,16.4112
2023-05-15T15:59:28.389Z,16.4107
2023-05-15T16:02:32.848Z,16.3881
2023-05-15T16:07:35.613Z,16.2670
2023-05-15T16:08:36.226Z,16.2346
2023-05-15T16:09:36.755Z,16.1955
2023-05-15T16:10:37.529Z,16.1541
2023-05-15T16:11:37.940Z,16.1165
2023-05-15T16:12:39.064Z,16.0732
2023-05-15T16:13:41.392Z,16.0317
2023-05-15T16:14:42.106Z,15.9873
2023-05-15T16:15:43.747Z,15.9446
2023-05-15T16:16:44.908Z,15.9034
2023-05-15T16:22:29.020Z,15.6985
2023-05-15T16:23:30.685Z,15.6700
2023-05-15T16:24:32.935Z,15.6457
2023-05-15T16:25:35.144Z,15.6259
2023-05-15T16:26:36.442Z,15.6107
2023-05-15T16:27:36.849Z,15.5951
2023-05-15T16:28:37.401Z,15.5816
2023-05-15T16:29:39.122Z,15.5697
2023-05-15T16:30:49.085Z,15.5589
2023-05-15T16:33:13.447Z,15.5565
2023-05-15T16:34:14.481Z,15.5505
2023-05-15T16:35:16.779Z,15.5487
2023-05-15T16:36:17.442Z,15.5449
2023-05-15T16:37:19.154Z,15.5413
2023-05-15T16:38:20.896Z,15.5382
2023-05-15T16:39:23.143Z,15.5453
2023-05-15T16:42:26.213Z,15.7161
2023-05-15T16:51:30.865Z,16.1734
2023-05-15T16:54:33.530Z,16.2241
2023-05-15T16:55:34.980Z,16.2313
2023-05-15T16:56:36.702Z,16.2349
2023-05-15T16:57:37.620Z,16.2355
2023-05-15T16:58:38.874Z,16.2316
2023-05-15T16:59:39.350Z,16.2201
2023-05-15T17:00:42.040Z,16.2051
2023-05-15T17:01:43.365Z,16.1877
2023-05-15T17:02:44.242Z,16.1720
2023-05-15T17:03:46.191Z,16.1538
2023-05-15T17:04:46.741Z,16.1258
2023-05-15T17:05:48.044Z,16.0910
2023-05-15T17:06:49.079Z,16.0582
2023-05-15T17:07:49.247Z,16.0302
2023-05-15T17:08:49.467Z,16.0036
2023-05-15T17:09:51.624Z,15.9771
2023-05-15T17:10:53.750Z,15.9502
2023-05-15T17:11:56.495Z,15.9254
2023-05-15T17:13:57.893Z,15.8759
2023-05-15T17:24:09.123Z,15.7166
2023-05-15T17:25:11.366Z,15.7083
2023-05-15T17:26:12.326Z,15.6997
2023-05-15T17:27:15.882Z,15.6912
2023-05-15T17:30:18.079Z,15.6795
2023-05-15T17:32:21.926Z,15.6802
2023-05-15T17:33:21.986Z,15.6839
2023-05-15T17:34:23.804Z,15.6986
2023-05-15T17:35:26.017Z,15.7277
2023-05-15T17:36:25.879Z,15.7683
2023-05-15T17:37:26.738Z,15.8150
2023-05-15T17:38:27.428Z,15.8659
2023-05-15T17:39:28.294Z,15.9181
2023-05-15T17:40:29.879Z,15.9654
2023-05-15T17:41:31.742Z,16.0082
2023-05-15T17:42:33.401Z,16.0409
2023-05-15T17:43:33.807Z,16.0588
2023-05-15T17:45:35.589Z,16.0605
2023-05-15T17:46:36.822Z,16.0473
2023-05-15T17:47:49.915Z,16.0259
2023-05-15T17:49:09.984Z,16.0751
2023-05-15T17:50:10.631Z,15.9496
2023-05-15T17:51:12.073Z,15.9077
2023-05-15T17:52:18.886Z,15.8676
2023-05-15T17:53:14.493Z,15.8237
2023-05-15T17:54:16.338Z,15.7838
2023-05-15T17:55:17.848Z,15.7340
2023-05-15T17:56:18.412Z,15.6903
2023-05-15T17:57:19.848Z,15.6442
2023-05-15T18:10:31.282Z,14.9787
2023-05-15T18:11:31.849Z,14.9318
2023-05-15T18:12:32.277Z,14.8804
2023-05-15T18:13:32.942Z,14.8371
2023-05-15T18:14:33.424Z,14.7871
2023-05-15T18:15:34.559Z,14.7433
2023-05-15T18:16:34.745Z,14.6978
2023-05-15T18:17:36.858Z,14.6555
2023-05-15T18:18:37.090Z,14.6140
2023-05-15T18:27:48.120Z,14.2260
2023-05-15T18:30:20.751Z,14.2183
2023-05-15T18:31:23.493Z,14.0909
2023-05-15T18:32:23.694Z,14.0510
2023-05-15T18:33:23.688Z,14.0136
2023-05-15T18:34:25.347Z,13.9795
2023-05-15T18:35:27.354Z,13.9417
2023-05-15T18:36:27.871Z,13.9109
2023-05-15T18:37:28.540Z,13.8795
2023-05-15T18:38:29.151Z,13.8467
2023-05-15T18:39:30.527Z,13.8143
2023-05-15T18:40:32.077Z,13.7841
2023-05-15T18:41:34.393Z,13.7506
2023-05-15T18:42:34.812Z,13.7212
2023-05-15T18:43:36.913Z,13.6940
2023-05-15T18:44:38.581Z,13.6647
2023-05-15T18:45:38.900Z,13.6349
2023-05-15T18:46:39.388Z,13.6053
2023-05-15T18:47:41.063Z,13.5767
2023-05-15T18:48:42.072Z,13.5487
2023-05-15T18:49:42.268Z,13.5191
2023-05-15T18:50:44.011Z,13.4909
2023-05-15T18:51:45.415Z,13.4661
2023-05-15T18:52:47.109Z,13.4424
2023-05-15T18:53:47.470Z,13.4179
2023-05-15T18:54:49.506Z,13.3941
2023-05-15T18:57:22.990Z,13.4333
2023-05-15T18:58:23.595Z,13.3225
2023-05-15T18:59:24.834Z,13.2966
2023-05-15T19:00:37.096Z,13.2722
2023-05-15T19:05:00.497Z,13.1876
2023-05-15T19:06:01.226Z,13.1675
2023-05-15T19:07:03.207Z,13.1530
2023-05-15T19:08:04.871Z,13.1399
2023-05-15T19:09:05.874Z,13.1252
2023-05-15T19:10:06.908Z,13.1096
2023-05-15T19:11:08.818Z,13.0906
2023-05-15T19:12:09.522Z,13.0738
2023-05-15T19:13:09.639Z,13.0580
2023-05-15T19:14:10.752Z,13.0399
2023-05-15T19:15:11.715Z,13.0217
2023-05-15T19:16:13.142Z,13.0035
2023-05-15T19:17:14.373Z,12.9832
2023-05-15T19:18:15.366Z,12.9637
2023-05-15T19:19:16.251Z,12.9474
2023-05-15T19:20:17.369Z,12.9297
2023-05-15T19:21:17.618Z,12.9147
2023-05-15T19:24:21.210Z,12.8614
2023-05-15T19:25:25.809Z,12.8467
2023-05-15T19:26:24.479Z,12.8330
2023-05-15T19:27:26.270Z,12.8208
2023-05-15T19:34:31.309Z,12.7163
2023-05-15T19:35:35.885Z,12.7035
2023-05-15T19:36:35.528Z,12.6887
2023-05-15T19:37:35.601Z,12.6804
2023-05-15T19:38:37.372Z,12.6672
2023-05-15T19:39:39.161Z,12.6342
2023-05-15T19:40:41.182Z,12.5969
2023-05-15T19:41:48.900Z,12.5715
2023-05-15T19:44:15.829Z,12.5339
2023-05-15T19:45:16.473Z,12.5193
2023-05-15T19:46:18.678Z,12.5083
2023-05-15T19:47:20.198Z,12.4945
2023-05-15T19:48:22.058Z,12.4799
2023-05-15T19:49:23.240Z,12.4640
2023-05-15T19:51:25.365Z,12.4306
2023-05-15T19:52:27.750Z,12.4110
2023-05-15T19:53:28.602Z,12.3941
2023-05-15T20:00:37.271Z,12.2843
2023-05-15T20:02:38.683Z,12.2408
2023-05-15T20:04:42.750Z,12.1515
2023-05-15T20:05:43.819Z,12.1012
2023-05-15T20:06:43.916Z,12.0585
2023-05-15T20:07:45.942Z,12.0235
2023-05-15T20:08:47.100Z,11.9899
2023-05-15T20:09:49.607Z,11.9579
2023-05-15T20:10:50.319Z,11.9231
2023-05-15T20:11:51.359Z,11.8867
2023-05-15T20:12:52.783Z,11.8498
2023-05-15T20:13:52.953Z,11.8121
2023-05-15T20:14:54.847Z,11.7763
2023-05-15T20:15:56.384Z,11.7447
2023-05-15T20:16:57.903Z,11.7172
2023-05-15T20:19:00.981Z,11.6659
2023-05-15T20:20:02.682Z,11.6466
2023-05-15T20:21:02.908Z,11.6239
2023-05-15T20:23:06.605Z,11.5659
2023-05-15T20:30:14.853Z,11.3580
2023-05-15T20:31:16.833Z,11.3308
2023-05-15T20:32:18.969Z,11.3059
2023-05-15T20:33:20.327Z,11.2828
2023-05-15T20:34:22.878Z,11.2643
2023-05-15T20:35:23.745Z,11.2461
2023-05-15T20:36:24.142Z,11.2311
2023-05-15T20:37:25.188Z,11.2174